Time;durP1;ratioP1;P1;durP2;ratioP2;P2;SDS_P1;SDS_P2;PMS_P1;PMS_P2;Temp;Humidity;BMP_temperature;BMP_pressure;BME280_temperature;BME280_humidity;BME280_pressure;Samples;Min_cycle;Max_cycle;Signal;HPM_P1;HPM_P2
2023/04/06 00:01:28;;;;;;;3.47;3.17;;;6.30;25.40;;;;;;10286883;28;20228;-74
2023/04/06 00:06:31;;;;;;;4.80;3.17;;;6.30;25.40;;;;;;10277628;28;20224;-74
2023/04/06 00:11:37;;;;;;;5.27;4.27;;;6.20;25.40;;;;;;10250729;28;20228;-74
2023/04/06 00:16:40;;;;;;;5.00;3.57;;;6.20;25.60;;;;;;10224542;28;20265;-74
2023/04/06 00:21:44;;;;;;;3.37;3.03;;;6.20;25.50;;;;;;10227556;28;20265;-74
2023/04/06 00:26:48;;;;;;;3.67;3.03;;;6.20;25.50;;;;;;10223231;28;20231;-74
2023/04/06 00:31:51;;;;;;;4.10;2.80;;;6.10;25.60;;;;;;10223812;28;20217;-74
2023/04/06 00:36:55;;;;;;;3.33;2.80;;;6.00;25.50;;;;;;10224760;28;20260;-74
2023/04/06 00:42:00;;;;;;;4.20;3.30;;;6.00;25.50;;;;;;10225170;28;20235;-74
2023/04/06 00:47:03;;;;;;;3.73;3.43;;;5.90;25.70;;;;;;10233675;28;20697;-74
2023/04/06 00:52:06;;;;;;;3.17;2.87;;;5.90;25.70;;;;;;10223906;28;20721;-74
2023/04/06 00:57:11;;;;;;;3.33;3.03;;;5.90;25.70;;;;;;10220819;28;20577;-74
2023/04/06 01:02:15;;;;;;;2.90;2.70;;;5.80;25.90;;;;;;10222684;28;20331;-74
2023/04/06 01:07:18;;;;;;;6.03;4.10;;;5.80;25.70;;;;;;10225144;28;20288;-74
2023/04/06 01:12:22;;;;;;;4.13;3.73;;;5.80;25.80;;;;;;10269727;28;20239;-74
2023/04/06 01:17:26;;;;;;;3.67;3.37;;;5.70;25.90;;;;;;10279933;28;20733;-74
2023/04/06 01:22:30;;;;;;;4.10;3.70;;;5.70;25.80;;;;;;10284450;28;20262;-74
2023/04/06 01:27:34;;;;;;;3.53;3.23;;;5.60;26.00;;;;;;10273655;28;20441;-74
2023/04/06 01:32:37;;;;;;;3.50;3.20;;;5.60;25.90;;;;;;10271221;28;20717;-74
2023/04/06 01:37:41;;;;;;;3.00;2.80;;;5.50;25.90;;;;;;10282842;28;20732;-74
2023/04/06 01:42:45;;;;;;;2.77;2.57;;;5.50;26.20;;;;;;10273931;28;20285;-74
2023/04/06 01:47:48;;;;;;;3.07;2.77;;;5.40;26.20;;;;;;10282673;28;20590;-74
2023/04/06 01:52:52;;;;;;;3.43;3.13;;;5.40;26.20;;;;;;10280389;28;20322;-74
2023/04/06 01:57:56;;;;;;;3.37;2.83;;;5.40;26.20;;;;;;10281707;28;20704;-74
2023/04/06 02:02:59;;;;;;;3.47;3.17;;;5.30;26.10;;;;;;10275457;28;20231;-74
2023/04/06 02:08:05;;;;;;;3.40;3.10;;;5.30;26.10;;;;;;10281801;28;20754;-73
2023/04/06 02:13:08;;;;;;;3.20;2.67;;;5.30;26.10;;;;;;10290492;28;20224;-74
2023/04/06 02:18:11;;;;;;;4.80;2.90;;;5.20;26.00;;;;;;10279828;28;20228;-74
2023/04/06 02:23:16;;;;;;;3.87;3.13;;;5.20;26.00;;;;;;10286038;28;20241;-74
2023/04/06 02:28:19;;;;;;;4.07;3.30;;;5.20;26.00;;;;;;10283242;28;20230;-75
2023/04/06 02:33:22;;;;;;;4.03;3.43;;;5.10;26.00;;;;;;10283328;28;20698;-74
2023/04/06 02:38:27;;;;;;;3.83;3.53;;;5.10;26.00;;;;;;10279491;28;20231;-74
2023/04/06 02:43:30;;;;;;;4.27;3.37;;;5.10;26.00;;;;;;10273880;28;20708;-74
2023/04/06 02:48:35;;;;;;;6.40;4.17;;;5.00;25.90;;;;;;10286384;28;20240;-74
2023/04/06 02:53:40;;;;;;;3.90;3.53;;;4.90;25.90;;;;;;10282192;28;20234;-74
2023/04/06 02:58:43;;;;;;;3.50;2.83;;;4.90;25.90;;;;;;10285933;28;20236;-74
2023/04/06 03:03:46;;;;;;;3.83;3.50;;;4.90;25.90;;;;;;10284602;28;20293;-74
2023/04/06 03:09:11;;;;;;;6.40;3.60;;;4.90;25.90;;;;;;10279922;28;20275;-74
2023/04/06 03:14:17;;;;;;;6.23;3.60;;;4.80;25.90;;;;;;10274878;28;20303;-74
2023/04/06 03:19:20;;;;;;;4.23;3.60;;;4.80;25.80;;;;;;10284226;28;20223;-74
2023/04/06 03:24:24;;;;;;;4.90;3.97;;;4.70;25.70;;;;;;10290209;28;20223;-74
2023/04/06 03:29:28;;;;;;;5.57;3.60;;;4.70;26.10;;;;;;10280727;28;20243;-74
2023/04/06 03:34:31;;;;;;;4.27;3.60;;;4.60;26.00;;;;;;10285825;28;20576;-74
2023/04/06 03:39:36;;;;;;;5.50;4.07;;;4.60;26.00;;;;;;10285531;28;20243;-74
2023/04/06 03:44:39;;;;;;;5.50;4.70;;;4.60;26.10;;;;;;10284502;28;20750;-74
2023/04/06 03:49:42;;;;;;;7.23;5.50;;;4.50;26.10;;;;;;10277852;28;20231;-74
2023/04/06 03:54:47;;;;;;;5.13;4.63;;;4.50;26.00;;;;;;10282302;28;20236;-74
2023/04/06 03:59:50;;;;;;;4.93;4.43;;;4.50;26.20;;;;;;10288543;28;20238;-74
2023/04/06 04:04:53;;;;;;;4.60;4.20;;;4.40;26.10;;;;;;10283606;28;20239;-74
2023/04/06 04:09:58;;;;;;;5.00;4.53;;;4.40;26.20;;;;;;10279943;28;20227;-76
2023/04/06 04:15:01;;;;;;;5.17;4.57;;;4.40;26.20;;;;;;10281952;28;20229;-74
2023/04/06 04:20:07;;;;;;;4.30;3.87;;;4.30;26.20;;;;;;10286444;28;20227;-74
2023/04/06 04:25:12;;;;;;;4.80;4.40;;;4.30;26.30;;;;;;10281870;28;20752;-74
2023/04/06 04:30:16;;;;;;;4.20;3.73;;;4.20;26.40;;;;;;10281880;28;20235;-74
2023/04/06 04:35:19;;;;;;;4.63;4.23;;;4.20;26.20;;;;;;10282981;28;20235;-74
2023/04/06 04:40:24;;;;;;;6.70;4.30;;;4.10;26.30;;;;;;10278139;28;20283;-74
2023/04/06 04:45:27;;;;;;;4.47;3.83;;;4.10;26.40;;;;;;10278970;28;20234;-74
2023/04/06 04:50:30;;;;;;;4.83;4.33;;;4.00;26.30;;;;;;10283428;28;20235;-74
2023/04/06 04:55:35;;;;;;;5.67;5.17;;;4.00;26.40;;;;;;10277915;28;20235;-74
2023/04/06 05:00:38;;;;;;;6.33;4.70;;;4.00;26.60;;;;;;10281728;28;20755;-74
2023/04/06 05:05:41;;;;;;;6.40;5.00;;;3.90;26.40;;;;;;10282990;28;20247;-74
2023/04/06 05:10:46;;;;;;;6.00;4.90;;;3.90;26.40;;;;;;10277245;28;20231;-74
2023/04/06 05:15:49;;;;;;;5.83;5.00;;;3.90;26.50;;;;;;10274939;28;20234;-74
2023/04/06 05:20:53;;;;;;;5.77;3.97;;;3.90;26.60;;;;;;10280508;28;20321;-74
2023/04/06 05:25:57;;;;;;;4.90;4.40;;;3.90;27.20;;;;;;10280520;28;20248;-74
2023/04/06 05:31:00;;;;;;;4.97;4.47;;;3.90;26.80;;;;;;10285143;28;20227;-74
2023/04/06 05:36:06;;;;;;;5.13;4.63;;;3.90;27.40;;;;;;10272483;28;20667;-74
2023/04/06 05:41:11;;;;;;;6.10;4.10;;;3.80;26.80;;;;;;10273402;28;20348;-74
2023/04/06 05:46:14;;;;;;;4.90;4.13;;;3.80;27.00;;;;;;10275655;28;20234;-74
2023/04/06 05:51:18;;;;;;;3.83;3.47;;;3.90;27.00;;;;;;10288290;28;20774;-74
2023/04/06 05:56:23;;;;;;;4.23;3.80;;;3.90;27.60;;;;;;10290112;28;20234;-74
2023/04/06 06:01:26;;;;;;;5.50;4.20;;;3.90;27.20;;;;;;10286168;28;20231;-74
2023/04/06 06:06:30;;;;;;;5.27;4.40;;;3.90;27.20;;;;;;10284084;28;20233;-74
2023/04/06 06:11:35;;;;;;;5.77;4.90;;;3.90;27.40;;;;;;10282198;28;20231;-74
2023/04/06 06:16:38;;;;;;;4.50;4.10;;;3.90;27.70;;;;;;10285303;28;20228;-74
2023/04/06 06:21:41;;;;;;;4.63;4.23;;;4.00;27.70;;;;;;10288206;28;20227;-74
2023/04/06 06:26:48;;;;;;;8.27;4.80;;;4.00;27.70;;;;;;10284378;28;20220;-74
2023/04/06 06:31:51;;;;;;;5.20;4.70;;;4.00;28.10;;;;;;10292749;28;20227;-74
2023/04/06 06:36:55;;;;;;;5.70;4.70;;;4.00;27.90;;;;;;10288975;28;20238;-74
2023/04/06 06:42:01;;;;;;;7.50;5.60;;;4.10;28.20;;;;;;10276802;28;20228;-74
2023/04/06 06:47:04;;;;;;;7.33;5.27;;;4.10;28.20;;;;;;10285847;28;20227;-74
2023/04/06 06:52:07;;;;;;;7.73;5.70;;;4.20;28.10;;;;;;10282338;28;20228;-74
2023/04/06 06:57:12;;;;;;;7.23;5.87;;;4.30;28.20;;;;;;10285915;28;20242;-74
2023/04/06 07:02:15;;;;;;;6.30;5.53;;;4.30;28.50;;;;;;10276572;28;20236;-74
2023/04/06 07:07:18;;;;;;;7.33;6.43;;;4.50;28.40;;;;;;10281709;28;20232;-74
2023/04/06 07:12:23;;;;;;;6.07;5.53;;;4.60;28.50;;;;;;10284343;28;20242;-74
2023/04/06 07:17:26;;;;;;;9.17;6.87;;;4.70;28.60;;;;;;10283071;28;20242;-73
2023/04/06 07:22:30;;;;;;;6.77;6.17;;;4.80;28.50;;;;;;10280881;28;20282;-73
2023/04/06 07:27:35;;;;;;;10.20;6.63;;;5.00;28.60;;;;;;10289304;28;20635;-73
2023/04/06 07:32:38;;;;;;;6.93;6.23;;;5.10;29.00;;;;;;10282190;28;20258;-73
2023/04/06 07:37:42;;;;;;;6.77;6.17;;;5.30;28.80;;;;;;10284470;28;20604;-73
2023/04/06 07:42:46;;;;;;;7.00;6.30;;;5.50;28.80;;;;;;10280109;28;20231;-73
2023/04/06 07:47:50;;;;;;;7.47;6.77;;;5.70;29.20;;;;;;10284917;28;20222;-72
2023/04/06 07:52:53;;;;;;;6.83;6.23;;;5.90;29.10;;;;;;10274884;28;20788;-71
2023/04/06 07:57:58;;;;;;;6.30;5.70;;;6.20;29.20;;;;;;10269903;28;20236;-71
2023/04/06 08:03:01;;;;;;;9.07;6.50;;;6.40;29.90;;;;;;10277359;28;20236;-70
2023/04/06 08:08:05;;;;;;;7.03;6.37;;;6.70;29.20;;;;;;10278190;28;23697;-70
2023/04/06 08:13:10;;;;;;;6.43;5.73;;;7.00;29.10;;;;;;10271288;28;20227;-70
2023/04/06 08:18:13;;;;;;;7.63;6.27;;;7.20;28.90;;;;;;10274658;28;20223;-70
2023/04/06 08:23:16;;;;;;;7.60;6.73;;;7.60;28.90;;;;;;10277127;28;20235;-70
2023/04/06 08:28:21;;;;;;;6.77;6.07;;;7.80;28.80;;;;;;10271713;28;20228;-70
2023/04/06 08:33:24;;;;;;;6.87;6.27;;;8.10;28.70;;;;;;10272707;28;20236;-70
2023/04/06 08:38:28;;;;;;;7.03;6.33;;;8.50;28.70;;;;;;10273009;28;20335;-70
2023/04/06 08:43:32;;;;;;;7.00;6.40;;;8.80;28.60;;;;;;10269572;28;20688;-70
2023/04/06 08:48:36;;;;;;;6.60;6.00;;;9.20;28.50;;;;;;10278915;28;20236;-71
2023/04/06 08:53:40;;;;;;;6.90;5.83;;;9.50;28.70;;;;;;10271873;28;20240;-70
2023/04/06 08:58:45;;;;;;;6.10;5.53;;;9.80;28.50;;;;;;10273299;28;20235;-70
2023/04/06 09:03:50;;;;;;;6.83;5.97;;;10.20;27.30;;;;;;10277610;28;20764;-70
2023/04/06 09:08:54;;;;;;;6.47;5.37;;;10.40;26.90;;;;;;10270554;28;20944;-69
2023/04/06 09:13:59;;;;;;;6.10;5.50;;;10.70;26.80;;;;;;10277057;28;20242;-69
2023/04/06 09:19:05;;;;;;;6.57;6.07;;;10.90;26.70;;;;;;10274225;28;20592;-70
2023/04/06 09:24:09;;;;;;;5.33;4.93;;;11.10;26.20;;;;;;10278590;28;20317;-70
2023/04/06 09:29:24;;;;;;;5.57;5.03;;;11.30;26.90;;;;;;10283572;28;20238;-70
2023/04/06 09:34:27;;;;;;;6.70;5.20;;;11.60;25.30;;;;;;10282250;28;20231;-70
2023/04/06 09:39:30;;;;;;;6.07;5.47;;;11.80;26.00;;;;;;10286374;28;20227;-70
2023/04/06 09:44:35;;;;;;;6.43;5.50;;;12.00;25.90;;;;;;10280418;28;20235;-70
2023/04/06 09:49:39;;;;;;;6.07;5.47;;;12.20;25.00;;;;;;10269643;28;20231;-69
2023/04/06 09:54:43;;;;;;;5.87;5.27;;;12.20;25.00;;;;;;10270677;28;20258;-70
2023/04/06 09:59:56;;;;;;;7.37;5.60;;;12.30;25.00;;;;;;10271298;28;20595;-69
2023/04/06 10:05:04;;;;;;;6.47;5.60;;;12.40;24.40;;;;;;10267832;28;20739;-70
2023/04/06 10:10:09;;;;;;;6.60;6.00;;;12.50;24.70;;;;;;10264642;28;20219;-70
2023/04/06 10:15:14;;;;;;;6.67;6.07;;;12.60;24.80;;;;;;10268776;28;20315;-70
2023/04/06 10:20:24;;;;;;;6.50;6.00;;;12.80;24.20;;;;;;10273247;28;20253;-70
2023/04/06 10:25:28;;;;;;;5.90;5.40;;;12.90;23.80;;;;;;10276857;28;20238;-70
2023/04/06 10:30:33;;;;;;;6.60;6.00;;;13.00;24.30;;;;;;10269930;28;20238;-70
2023/04/06 10:35:39;;;;;;;6.93;6.30;;;13.10;24.20;;;;;;10275069;28;20231;-70
2023/04/06 10:40:44;;;;;;;6.07;5.57;;;13.20;23.80;;;;;;10277343;28;20227;-70
2023/04/06 10:45:56;;;;;;;6.63;6.03;;;13.40;24.10;;;;;;10271019;28;20231;-70
2023/04/06 10:50:59;;;;;;;6.77;6.17;;;13.60;23.30;;;;;;10276085;28;20232;-70
2023/04/06 10:56:05;;;;;;;6.90;6.00;;;13.70;23.90;;;;;;10287133;28;20228;-70
2023/04/06 11:01:12;;;;;;;6.80;6.20;;;13.70;23.20;;;;;;10280435;28;20253;-70
2023/04/06 11:06:23;;;;;;;6.60;6.00;;;13.70;22.80;;;;;;10282079;28;20232;-70
2023/04/06 11:11:27;;;;;;;6.87;6.27;;;13.70;22.40;;;;;;10285430;28;20228;-70
2023/04/06 11:16:33;;;;;;;6.50;5.83;;;13.80;23.20;;;;;;10282665;28;20226;-70
2023/04/06 11:21:39;;;;;;;6.33;5.83;;;13.80;22.60;;;;;;10282793;28;20237;-70
2023/04/06 11:26:45;;;;;;;6.93;6.33;;;13.90;23.10;;;;;;10277676;28;20219;-70
2023/04/06 11:31:51;;;;;;;7.40;6.80;;;13.90;23.00;;;;;;10282807;28;20606;-70
2023/04/06 11:36:57;;;;;;;7.60;6.90;;;13.90;22.50;;;;;;10272049;28;20382;-70
2023/04/06 11:42:02;;;;;;;7.23;6.63;;;13.90;22.50;;;;;;10273265;28;20242;-70
2023/04/06 11:47:10;;;;;;;6.47;5.87;;;13.80;22.50;;;;;;10278561;28;20641;-70
2023/04/06 11:52:18;;;;;;;7.17;6.50;;;13.70;22.30;;;;;;10277459;28;20330;-70
2023/04/06 11:57:24;;;;;;;6.63;6.03;;;13.70;22.10;;;;;;10275210;28;20577;-70
2023/04/06 12:02:28;;;;;;;6.87;6.27;;;13.70;22.60;;;;;;10273646;28;20243;-70
2023/04/06 12:07:32;;;;;;;6.87;6.27;;;13.70;22.30;;;;;;10276467;28;20274;-70
2023/04/06 12:12:35;;;;;;;7.03;6.33;;;13.70;22.60;;;;;;10275283;28;20669;-70
2023/04/06 12:17:40;;;;;;;7.57;6.97;;;13.80;22.50;;;;;;10271489;28;20255;-70
2023/04/06 12:22:43;;;;;;;7.47;6.77;;;13.80;22.00;;;;;;10270613;28;20242;-70
2023/04/06 12:27:46;;;;;;;6.50;6.00;;;13.80;22.00;;;;;;10269382;28;20238;-70
2023/04/06 12:32:51;;;;;;;8.57;7.77;;;13.70;22.20;;;;;;10275257;28;20258;-70
2023/04/06 12:37:55;;;;;;;7.20;6.43;;;13.70;22.00;;;;;;10269777;28;20647;-70
2023/04/06 12:42:58;;;;;;;7.83;7.13;;;13.80;22.20;;;;;;10264662;28;20290;-70
2023/04/06 12:48:03;;;;;;;7.37;6.67;;;13.90;22.30;;;;;;10268343;28;20236;-70
2023/04/06 12:53:06;;;;;;;7.23;6.63;;;14.00;21.80;;;;;;10273997;28;20227;-70
2023/04/06 12:58:10;;;;;;;7.10;6.50;;;14.10;21.70;;;;;;10279518;28;20310;-70
2023/04/06 13:03:14;;;;;;;6.17;5.67;;;14.00;21.60;;;;;;10264062;28;20336;-70
2023/04/06 13:08:19;;;;;;;7.37;6.70;;;13.90;21.20;;;;;;10268437;28;20220;-70
2023/04/06 13:13:25;;;;;;;6.80;6.30;;;13.90;21.80;;;;;;10270910;28;20243;-70
2023/04/06 13:18:29;;;;;;;7.37;6.73;;;14.00;21.90;;;;;;10273154;28;20241;-70
2023/04/06 13:23:32;;;;;;;7.30;6.70;;;14.10;21.30;;;;;;10273357;28;20654;-70
2023/04/06 13:28:38;;;;;;;7.10;6.50;;;14.30;21.90;;;;;;10272410;28;20234;-70
2023/04/06 13:33:43;;;;;;;7.43;6.73;;;14.30;21.50;;;;;;10269379;28;20256;-70
2023/04/06 13:38:47;;;;;;;7.40;6.80;;;14.50;21.60;;;;;;10272207;28;20238;-70
2023/04/06 13:43:50;;;;;;;7.13;6.53;;;14.50;21.60;;;;;;10276171;28;20234;-70
2023/04/06 13:48:55;;;;;;;6.50;6.00;;;14.60;21.70;;;;;;10282486;28;20243;-70
2023/04/06 13:53:58;;;;;;;6.87;6.27;;;14.60;21.30;;;;;;10279404;28;20838;-70
2023/04/06 13:59:01;;;;;;;6.60;6.03;;;14.70;21.70;;;;;;10282270;28;20231;-70
2023/04/06 14:04:06;;;;;;;7.90;7.27;;;14.70;22.00;;;;;;10278703;28;20238;-70
2023/04/06 14:09:09;;;;;;;7.37;6.77;;;14.80;21.40;;;;;;10282278;28;20228;-70
2023/04/06 14:14:13;;;;;;;9.40;7.40;;;14.90;21.40;;;;;;10283262;28;21126;-70
2023/04/06 14:19:18;;;;;;;7.67;7.07;;;15.00;21.20;;;;;;10290205;28;20238;-70
2023/04/06 14:24:22;;;;;;;7.43;6.73;;;15.00;20.70;;;;;;10284452;28;20246;-70
2023/04/06 14:29:25;;;;;;;7.80;7.10;;;15.00;20.80;;;;;;10283756;28;20353;-70
2023/04/06 14:34:30;;;;;;;7.30;6.70;;;15.00;21.00;;;;;;10283595;28;20224;-70
2023/04/06 14:39:33;;;;;;;7.77;7.17;;;15.00;20.60;;;;;;10281674;28;20232;-70
2023/04/06 14:44:37;;;;;;;7.33;6.70;;;15.00;20.80;;;;;;10279034;28;20235;-70
2023/04/06 14:49:41;;;;;;;7.80;7.20;;;15.00;21.10;;;;;;10274255;28;20235;-70
2023/04/06 14:54:44;;;;;;;7.90;7.30;;;15.10;20.30;;;;;;10281524;28;20234;-70
2023/04/06 14:59:48;;;;;;;7.80;7.03;;;15.10;20.30;;;;;;10276527;28;20230;-70
2023/04/06 15:04:52;;;;;;;7.13;6.53;;;15.10;20.40;;;;;;10273206;28;20223;-70
2023/04/06 15:09:56;;;;;;;8.13;7.43;;;15.10;20.50;;;;;;10273449;28;20228;-70
2023/04/06 15:15:00;;;;;;;7.23;6.53;;;15.10;20.80;;;;;;10276433;28;20775;-70
2023/04/06 15:20:06;;;;;;;7.83;7.03;;;15.10;20.50;;;;;;10278256;28;20720;-70
2023/04/06 15:25:10;;;;;;;7.10;6.40;;;15.20;20.00;;;;;;10280887;28;20246;-70
2023/04/06 15:30:13;;;;;;;7.00;6.40;;;15.10;20.20;;;;;;10283522;28;20580;-70
2023/04/06 15:35:18;;;;;;;7.27;6.33;;;15.10;20.20;;;;;;10286692;28;20319;-71
2023/04/06 15:40:21;;;;;;;7.17;6.57;;;15.10;20.10;;;;;;10274420;28;20819;-70
2023/04/06 15:45:25;;;;;;;7.10;6.50;;;15.20;20.20;;;;;;10273163;28;20230;-70
2023/04/06 15:50:30;;;;;;;6.50;6.00;;;15.20;20.00;;;;;;10277456;28;20243;-70
2023/04/06 15:55:33;;;;;;;5.90;5.30;;;15.20;19.80;;;;;;10280408;28;20227;-70
2023/04/06 16:00:36;;;;;;;7.00;6.40;;;15.20;20.10;;;;;;10285590;28;20231;-70
2023/04/06 16:05:41;;;;;;;6.53;5.93;;;15.30;20.00;;;;;;10286079;28;20226;-70
2023/04/06 16:11:01;;;;;;;6.30;5.73;;;15.30;19.60;;;;;;10283826;28;20676;-70
2023/04/06 16:16:11;;;;;;;6.97;6.37;;;15.30;19.90;;;;;;10275483;28;20704;-70
2023/04/06 16:21:17;;;;;;;6.77;6.17;;;15.50;19.40;;;;;;10279538;28;20318;-71
2023/04/06 16:26:22;;;;;;;6.67;5.97;;;15.40;19.30;;;;;;10282479;28;20231;-71
2023/04/06 16:31:25;;;;;;;6.33;5.83;;;15.50;19.20;;;;;;10275948;28;20259;-71
2023/04/06 16:36:32;;;;;;;6.23;5.73;;;15.40;19.40;;;;;;10280495;28;20230;-71
2023/04/06 16:41:36;;;;;;;6.20;5.70;;;15.50;18.90;;;;;;10273248;28;20247;-71
2023/04/06 16:46:40;;;;;;;6.10;5.60;;;15.50;19.30;;;;;;10281319;28;20234;-71
2023/04/06 16:51:44;;;;;;;5.03;4.63;;;15.50;19.20;;;;;;10273998;28;20621;-71
2023/04/06 16:56:47;;;;;;;6.40;5.80;;;15.40;19.20;;;;;;10274901;28;20235;-71
2023/04/06 17:01:50;;;;;;;6.20;5.60;;;15.40;19.10;;;;;;10276820;28;20231;-71
2023/04/06 17:06:55;;;;;;;6.53;5.93;;;15.40;18.90;;;;;;10275886;28;20235;-71
2023/04/06 17:11:59;;;;;;;5.83;5.30;;;15.30;18.30;;;;;;10268680;28;20314;-71
2023/04/06 17:17:02;;;;;;;6.60;5.87;;;15.20;18.60;;;;;;10273776;28;20689;-71
2023/04/06 17:22:07;;;;;;;12.13;9.33;;;15.20;18.70;;;;;;10273202;28;20234;-71
2023/04/06 17:27:10;;;;;;;5.87;5.37;;;15.10;18.80;;;;;;10270711;28;20286;-71
2023/04/06 17:32:13;;;;;;;9.73;8.87;;;15.00;19.00;;;;;;10279400;28;20235;-71
2023/04/06 17:37:18;;;;;;;14.03;12.60;;;15.00;19.30;;;;;;10275401;28;20243;-71
2023/04/06 17:42:21;;;;;;;12.07;10.90;;;14.90;19.70;;;;;;10269308;28;20294;-71
2023/04/06 17:47:30;;;;;;;8.80;8.00;;;14.80;19.30;;;;;;10287581;28;20226;-71
2023/04/06 17:52:36;;;;;;;6.47;5.87;;;14.70;19.40;;;;;;10286117;28;20231;-71
2023/04/06 17:57:39;;;;;;;5.40;4.90;;;14.60;19.40;;;;;;10283146;28;20223;-71
2023/04/06 18:02:44;;;;;;;5.60;4.63;;;14.50;19.60;;;;;;10286379;28;20734;-71
2023/04/06 18:07:49;;;;;;;4.90;4.50;;;14.40;19.70;;;;;;10283909;28;20277;-71
2023/04/06 18:12:52;;;;;;;5.00;4.30;;;14.30;20.00;;;;;;10286602;28;20231;-71
2023/04/06 18:17:55;;;;;;;4.70;4.33;;;14.20;19.80;;;;;;10275989;28;20223;-71
2023/04/06 18:22:59;;;;;;;6.23;4.47;;;14.10;19.60;;;;;;10285464;28;20299;-70
2023/04/06 18:28:03;;;;;;;4.27;3.73;;;13.90;19.40;;;;;;10281484;28;20227;-70
2023/04/06 18:33:06;;;;;;;5.63;4.40;;;13.70;19.60;;;;;;10282548;28;21007;-70
2023/04/06 18:38:11;;;;;;;8.87;5.27;;;13.60;20.00;;;;;;10278754;28;20583;-70
2023/04/06 18:43:15;;;;;;;5.30;4.40;;;13.50;19.80;;;;;;10279727;28;20283;-70
2023/04/06 18:48:18;;;;;;;4.83;4.43;;;13.40;20.00;;;;;;10278328;28;20234;-70
2023/04/06 18:53:23;;;;;;;7.03;5.77;;;13.30;20.10;;;;;;10279344;28;20243;-70
2023/04/06 18:58:27;;;;;;;8.23;7.43;;;13.20;19.90;;;;;;10285722;28;20600;-70
2023/04/06 19:03:30;;;;;;;9.90;8.93;;;12.90;19.70;;;;;;10282612;28;20234;-70
2023/04/06 19:08:35;;;;;;;9.27;8.37;;;12.70;20.20;;;;;;10279860;28;20228;-70
2023/04/06 19:13:38;;;;;;;11.83;10.60;;;12.50;20.30;;;;;;10292116;28;20236;-70
2023/04/06 19:18:42;;;;;;;11.83;10.70;;;12.30;20.10;;;;;;10291721;28;20242;-70
2023/04/06 19:23:48;;;;;;;14.67;13.23;;;12.10;20.00;;;;;;10274133;28;21001;-70
2023/04/06 19:28:51;;;;;;;11.50;10.40;;;11.90;19.90;;;;;;10277088;28;20572;-70
2023/04/06 19:33:55;;;;;;;12.00;10.77;;;11.70;20.10;;;;;;10284412;28;20635;-70
2023/04/06 19:38:59;;;;;;;11.97;10.33;;;11.60;20.30;;;;;;10285444;28;20242;-70
2023/04/06 19:44:02;;;;;;;12.13;9.30;;;11.40;20.30;;;;;;10276304;28;20616;-70
2023/04/06 19:49:05;;;;;;;9.80;7.73;;;11.20;20.50;;;;;;10280135;28;20696;-72
2023/04/06 19:54:10;;;;;;;6.53;5.93;;;11.10;20.50;;;;;;10276656;28;20228;-71
2023/04/06 19:59:13;;;;;;;7.60;6.90;;;10.90;20.70;;;;;;10278356;28;20234;-70
2023/04/06 20:04:16;;;;;;;7.20;6.50;;;10.70;20.90;;;;;;10277891;28;20327;-71
2023/04/06 20:09:21;;;;;;;6.20;5.60;;;10.60;21.00;;;;;;10281579;28;20742;-71
2023/04/06 20:14:25;;;;;;;6.30;5.70;;;10.50;21.30;;;;;;10277925;28;20669;-71
2023/04/06 20:19:28;;;;;;;6.13;5.63;;;10.50;21.30;;;;;;10281071;28;20230;-69
2023/04/06 20:24:33;;;;;;;6.83;6.23;;;10.50;21.40;;;;;;10279068;28;20509;-71
2023/04/06 20:29:36;;;;;;;9.13;8.23;;;10.50;21.50;;;;;;10277429;28;20795;-69
2023/04/06 20:34:39;;;;;;;11.53;9.13;;;10.50;21.50;;;;;;10284209;28;20603;-72
2023/04/06 20:39:43;;;;;;;11.03;9.87;;;10.50;21.50;;;;;;10278253;28;20232;-69
2023/04/06 20:44:47;;;;;;;15.60;11.47;;;10.50;21.70;;;;;;10279215;28;20239;-72
2023/04/06 20:49:50;;;;;;;18.30;12.10;;;10.40;21.60;;;;;;10277385;28;20242;-70
2023/04/06 20:54:55;;;;;;;14.23;11.07;;;10.40;21.70;;;;;;10274731;28;20220;-69
2023/04/06 20:59:58;;;;;;;12.73;10.47;;;10.30;21.70;;;;;;10277317;28;20254;-72
2023/04/06 21:05:01;;;;;;;15.50;13.83;;;10.30;21.70;;;;;;10279426;28;20243;-70
2023/04/06 21:10:07;;;;;;;17.27;12.87;;;10.20;21.70;;;;;;10280281;28;20227;-69
2023/04/06 21:15:11;;;;;;;15.07;12.00;;;10.10;21.80;;;;;;10283801;28;20278;-72
2023/04/06 21:20:14;;;;;;;9.60;8.70;;;9.90;22.30;;;;;;10274416;28;20231;-69
2023/04/06 21:25:19;;;;;;;13.13;9.63;;;9.70;22.50;;;;;;10279629;28;20759;-71
2023/04/06 21:30:22;;;;;;;10.27;9.27;;;9.60;22.90;;;;;;10280547;28;20239;-72
2023/04/06 21:35:26;;;;;;;13.17;8.77;;;9.60;22.80;;;;;;10280491;28;20227;-72
2023/04/06 21:40:30;;;;;;;10.03;8.53;;;9.50;22.80;;;;;;10271337;28;20246;-71
2023/04/06 21:45:33;;;;;;;11.73;10.53;;;9.50;23.00;;;;;;10269293;28;20239;-72
2023/04/06 21:50:39;;;;;;;9.50;8.60;;;9.40;22.90;;;;;;10275428;28;20232;-72
2023/04/06 21:55:44;;;;;;;9.17;8.20;;;9.40;23.30;;;;;;10277179;28;20720;-72
2023/04/06 22:00:48;;;;;;;10.97;9.73;;;9.30;23.30;;;;;;10274313;28;20235;-72
2023/04/06 22:05:51;;;;;;;10.87;8.97;;;9.30;23.30;;;;;;10281579;28;20235;-72
2023/04/06 22:10:55;;;;;;;7.83;7.03;;;9.10;23.00;;;;;;10269877;28;20231;-72
2023/04/06 22:15:58;;;;;;;10.63;8.43;;;9.10;23.30;;;;;;10274146;28;20731;-72
2023/04/06 22:21:02;;;;;;;11.37;8.77;;;9.00;23.00;;;;;;10268037;28;20226;-70
2023/04/06 22:26:07;;;;;;;8.77;7.87;;;8.70;23.00;;;;;;10279681;28;20599;-70
2023/04/06 22:31:10;;;;;;;10.30;9.17;;;8.50;23.30;;;;;;10275557;28;20310;-72
2023/04/06 22:36:13;;;;;;;8.80;8.00;;;8.30;23.40;;;;;;10284213;28;20663;-73
2023/04/06 22:41:18;;;;;;;7.27;6.57;;;8.20;23.60;;;;;;10282088;28;20259;-73
2023/04/06 22:46:22;;;;;;;6.83;6.13;;;8.20;23.70;;;;;;10284544;28;20289;-73
2023/04/06 22:51:26;;;;;;;6.80;6.20;;;8.10;23.60;;;;;;10283466;28;20254;-73
2023/04/06 22:56:31;;;;;;;8.57;7.03;;;8.00;23.80;;;;;;10286127;28;20224;-73
2023/04/06 23:01:34;;;;;;;7.70;6.93;;;8.00;24.10;;;;;;10283539;28;20742;-73
2023/04/06 23:06:37;;;;;;;7.90;6.87;;;7.90;23.90;;;;;;10276505;28;20381;-73
2023/04/06 23:11:42;;;;;;;7.40;5.53;;;7.90;24.00;;;;;;10279710;28;20223;-72
2023/04/06 23:16:45;;;;;;;7.87;7.17;;;7.90;24.10;;;;;;10280323;28;20228;-73
2023/04/06 23:21:48;;;;;;;8.30;7.50;;;7.90;24.10;;;;;;10280646;28;20747;-73
2023/04/06 23:26:53;;;;;;;9.00;8.10;;;7.80;24.00;;;;;;10285852;28;20227;-73
2023/04/06 23:31:56;;;;;;;7.73;6.97;;;7.60;24.00;;;;;;10278773;28;20228;-73
2023/04/06 23:37:01;;;;;;;8.73;7.87;;;7.40;24.00;;;;;;10277693;28;20715;-73
2023/04/06 23:42:06;;;;;;;7.63;6.93;;;7.40;24.40;;;;;;10274811;28;20219;-73
2023/04/06 23:47:09;;;;;;;8.17;6.40;;;7.30;24.70;;;;;;10283667;28;20700;-73
2023/04/06 23:52:12;;;;;;;8.07;7.27;;;7.40;24.60;;;;;;10280632;28;20271;-73
2023/04/06 23:57:17;;;;;;;7.57;6.67;;;7.40;24.80;;;;;;10275759;28;20616;-73
